KGYL

Details ICAO KGYL
Name GLENCOE MUNI
Region United States
Timezone America/Chicago (UTC-6.0)
Plans Departing 0
Arriving 0
Stats Elevation 992 ft / 302 m (AMSL)
Location 44.756043° -94.081210°
Runways 1
Magnetic Variation 0.899° E
Sunrise 2017-12-14 13:47:42 UTC / 2017-12-14 07:47:42 Local
Sunset 2017-12-14 22:37:22 UTC / 2017-12-14 16:37:22 Local
Advertisement - Login to hide

Runways

ID Width Length Bearing (true) Bearing (mag) Surface Threshold Offset Overrun Length
13 75 ft / 23 m 3,296 ft / 1,005 m 130.94° 130.04° Asphalt 0 ft / 0 m 0 ft / 0 m
31 75 ft / 23 m 3,296 ft / 1,005 m 310.95° 310.05° Asphalt 0 ft / 0 m 0 ft / 0 m

Map

Weather


0- 5 10 15 20 25 30 35+ Temperature / ° C

Clouds and Precipitation
Forecast for 2017-12-14 18:00 UTC. Updated 29 minutes ago

Ground ~20,000 ft ~40,000 ft Winds

METAR

KGYL 141336Z AUTO 00000KT 7SM OVC017 M08/M10 A3002 RMK AO2 T10831096

TAF

Not found

Frequencies

Unicom 122.80 MHz CTAF/UNICOM
Approach 125.00 MHz MINNEAPOLIS APP/DEP
Warning: Do not use this data for real-world aviation or navigation. No guarantee of current accuracy is given.